Flight Track Log - Related Links

Times and Time Zones

All times are in EDT time to prevent confusion due to time zone crossing. See the N39PH flight status page for this flight to view local times or setup timezone preferences in your user account.

Time Position Orientation Groundspeed Altitude Reporting Facility
EDT Latitude Longitude Course Direction KTS MPH feet Rate Location/Type
Sun 08:07:14 AM 37.0700 -107.8122 201° Southwest 182 209 9,100  Level Albuquerque Center
Sun 08:08:14 AM 37.0264 -107.8333 201° Southwest 178 205 10,600 1,559 Climbing Albuquerque Center
Sun 08:09:21 AM 36.9764 -107.8581 202° Southwest 175 201 12,400 1,547 Climbing Denver Center
Sun 08:10:22 AM 36.9369 -107.8858 209° Southwest 173 199 13,900 1,537 Climbing Denver Center
Sun 08:11:22 AM 36.8928 -107.9178 210° Southwest 168 193 15,500 1,500 Climbing Denver Center
Sun 08:12:22 AM 36.8528 -107.9450 209° Southwest 168 193 16,900 1,150 Climbing Denver Center
Sun 08:13:22 AM 36.8108 -107.9711 206° Southwest 173 199 17,800 545 Climbing Denver Center
Sun 08:14:23 AM 36.7658 -108.0017 209° Southwest 186 214 18,000 50 Climbing Denver Center
Sun 08:15:23 AM 36.7053 -108.0400 207° Southwest 211 243 17,900  Descending Denver Center
Sun 08:16:23 AM 36.6522 -108.0728 206° Southwest 220 253 18,000 50 Climbing Denver Center
Sun 08:17:24 AM 36.5978 -108.1053 206° Southwest 224 258 18,000  Level Denver Center
Sun 08:18:24 AM 36.5458 -108.1403 208° Southwest 223 257 18,000  Level Denver Center
Sun 08:19:24 AM 36.4836 -108.1794 207° Southwest 224 258 18,000 -50 Level Denver Center
Sun 08:20:25 AM 36.4292 -108.2139 207° Southwest 227 261 17,900  Descending Denver Center
Sun 08:21:25 AM 36.3747 -108.2478 207° Southwest 228 262 18,000 50 Climbing Denver Center
Sun 08:22:26 AM 36.3122 -108.2867 207° Southwest 225 259 18,000  Level Denver Center
Sun 08:23:26 AM 36.2589 -108.3231 209° Southwest 227 261 18,000 50 Level Denver Center
Sun 08:24:26 AM 36.2053 -108.3575 207° Southwest 226 260 18,100  Climbing Denver Center
Sun 08:25:27 AM 36.1506 -108.3914 207° Southwest 227 261 18,000 -198 Descending Denver Center
Sun 08:26:27 AM 36.0869 -108.4325 208° Southwest 229 264 17,700 -400 Descending Denver Center
Sun 08:26:42 AM 36.0783 -108.4389 211° Southwest 228 262 17,500 -1,184 Descending Albuquerque Center
Sun 08:27:43 AM 36.0133 -108.4761 205° Southwest 229 264 16,200 -1,140 Descending Albuquerque Center
Sun 08:28:43 AM 35.9606 -108.5119 209° Southwest 227 261 15,200 -800 Descending Albuquerque Center
Sun 08:29:43 AM 35.9081 -108.5464 208° Southwest 224 258 14,600 -700 Descending Albuquerque Center
Sun 08:30:43 AM 35.8556 -108.5797 207° Southwest 222 255 13,800 -800 Descending Albuquerque Center

Login

Don't have an account? Register now (free) for customized features, flight alerts, and more!